Terminal Aerodrome Forecast
Issued by NWS Sterling, VA

Current Version | Previous Version | Graphics & Text | Print | Product List | Glossary On
Versions: 1 2 3 4 5 6 7 8 9 10 11 12 13 14 15 16 17 18 19 20 21 22
000
FTUS41 KLWX 220500 RRA
TAFMRB
TAF
KMRB 220544Z 2206/2306 00000KT P6SM SCT250
     FM221400 00000KT P6SM SCT050 BKN090
     FM221800 VRB03KT 3SM -FZRA BKN025 BKN050
     FM222000 VRB03KT P6SM OVC025
     FM230000 00000KT P6SM OVC015=

USA.gov is the U.S. government's official web portal to all federal, state and local government web resources and services.